sensor_id;sensor_type;location;lat;lon;timestamp;temperature;humidity
56426;DHT22;42330;43.620;3.856;2022-10-31T00:01:16;18.90;99.90
56426;DHT22;42330;43.620;3.856;2022-10-31T00:03:43;19.00;99.90
56426;DHT22;42330;43.620;3.856;2022-10-31T00:06:08;19.00;99.90
56426;DHT22;42330;43.620;3.856;2022-10-31T00:08:34;18.90;99.90
56426;DHT22;42330;43.620;3.856;2022-10-31T00:11:00;18.90;99.90
56426;DHT22;42330;43.620;3.856;2022-10-31T00:13:26;18.90;99.90
56426;DHT22;42330;43.620;3.856;2022-10-31T00:15:51;18.90;99.90
56426;DHT22;42330;43.620;3.856;2022-10-31T00:18:17;19.00;99.90
56426;DHT22;42330;43.620;3.856;2022-10-31T00:20:43;19.00;99.90
56426;DHT22;42330;43.620;3.856;2022-10-31T00:23:09;18.90;99.90
56426;DHT22;42330;43.620;3.856;2022-10-31T00:25:37;18.90;99.90
56426;DHT22;42330;43.620;3.856;2022-10-31T00:28:05;18.90;99.90
56426;DHT22;42330;43.620;3.856;2022-10-31T00:30:31;18.90;99.90
56426;DHT22;42330;43.620;3.856;2022-10-31T00:32:57;18.90;99.90
56426;DHT22;42330;43.620;3.856;2022-10-31T00:35:22;18.90;99.90
56426;DHT22;42330;43.620;3.856;2022-10-31T00:37:48;18.80;99.90
56426;DHT22;42330;43.620;3.856;2022-10-31T00:40:14;18.90;99.90
56426;DHT22;42330;43.620;3.856;2022-10-31T00:42:40;18.80;99.90
56426;DHT22;42330;43.620;3.856;2022-10-31T00:45:08;18.90;99.90
56426;DHT22;42330;43.620;3.856;2022-10-31T00:47:34;18.90;99.90
56426;DHT22;42330;43.620;3.856;2022-10-31T00:50:00;18.80;99.90
56426;DHT22;42330;43.620;3.856;2022-10-31T00:52:25;18.80;99.90
56426;DHT22;42330;43.620;3.856;2022-10-31T00:54:51;18.80;99.90
56426;DHT22;42330;43.620;3.856;2022-10-31T00:57:16;18.80;99.90
56426;DHT22;42330;43.620;3.856;2022-10-31T00:59:42;18.80;99.90
56426;DHT22;42330;43.620;3.856;2022-10-31T01:02:08;18.80;99.90
56426;DHT22;42330;43.620;3.856;2022-10-31T01:04:34;18.80;99.90
56426;DHT22;42330;43.620;3.856;2022-10-31T01:06:59;18.70;99.90
56426;DHT22;42330;43.620;3.856;2022-10-31T01:09:25;18.70;99.90
56426;DHT22;42330;43.620;3.856;2022-10-31T01:11:51;18.80;99.90
56426;DHT22;42330;43.620;3.856;2022-10-31T01:14:16;18.70;99.90
56426;DHT22;42330;43.620;3.856;2022-10-31T01:16:42;18.70;99.90
56426;DHT22;42330;43.620;3.856;2022-10-31T01:19:07;18.80;99.90
56426;DHT22;42330;43.620;3.856;2022-10-31T01:21:33;18.80;99.90
56426;DHT22;42330;43.620;3.856;2022-10-31T01:23:59;18.80;99.90
56426;DHT22;42330;43.620;3.856;2022-10-31T01:26:29;18.80;99.90
56426;DHT22;42330;43.620;3.856;2022-10-31T01:29:05;18.70;99.90
56426;DHT22;42330;43.620;3.856;2022-10-31T01:31:33;18.70;99.90
56426;DHT22;42330;43.620;3.856;2022-10-31T01:33:59;18.80;99.90
56426;DHT22;42330;43.620;3.856;2022-10-31T01:36:29;18.80;99.90
56426;DHT22;42330;43.620;3.856;2022-10-31T01:38:57;18.80;99.90
56426;DHT22;42330;43.620;3.856;2022-10-31T01:41:26;18.80;99.90
56426;DHT22;42330;43.620;3.856;2022-10-31T01:43:55;18.80;99.90
56426;DHT22;42330;43.620;3.856;2022-10-31T01:48:55;18.70;99.90
56426;DHT22;42330;43.620;3.856;2022-10-31T01:51:35;18.70;99.90
56426;DHT22;42330;43.620;3.856;2022-10-31T01:54:05;18.70;99.90
56426;DHT22;42330;43.620;3.856;2022-10-31T01:56:33;18.70;99.90
56426;DHT22;42330;43.620;3.856;2022-10-31T01:59:03;18.70;99.90
56426;DHT22;42330;43.620;3.856;2022-10-31T02:01:30;18.70;99.90
56426;DHT22;42330;43.620;3.856;2022-10-31T02:03:56;18.60;99.90
56426;DHT22;42330;43.620;3.856;2022-10-31T02:06:47;18.60;99.90
56426;DHT22;42330;43.620;3.856;2022-10-31T02:09:14;18.60;99.90
56426;DHT22;42330;43.620;3.856;2022-10-31T02:11:41;18.60;99.90
56426;DHT22;42330;43.620;3.856;2022-10-31T02:14:07;18.60;99.90
56426;DHT22;42330;43.620;3.856;2022-10-31T02:16:33;18.50;99.90
56426;DHT22;42330;43.620;3.856;2022-10-31T02:18:58;18.60;99.90
56426;DHT22;42330;43.620;3.856;2022-10-31T02:21:38;18.50;99.90
56426;DHT22;42330;43.620;3.856;2022-10-31T02:32:33;18.60;99.90
56426;DHT22;42330;43.620;3.856;2022-10-31T02:38:21;18.60;99.90
56426;DHT22;42330;43.620;3.856;2022-10-31T02:43:35;18.50;99.90
56426;DHT22;42330;43.620;3.856;2022-10-31T02:46:09;18.60;99.90
56426;DHT22;42330;43.620;3.856;2022-10-31T02:48:38;18.50;99.90
56426;DHT22;42330;43.620;3.856;2022-10-31T02:51:05;18.60;99.90
56426;DHT22;42330;43.620;3.856;2022-10-31T02:53:34;18.50;99.90
56426;DHT22;42330;43.620;3.856;2022-10-31T02:58:38;18.50;99.90
56426;DHT22;42330;43.620;3.856;2022-10-31T03:04:03;18.50;99.90
56426;DHT22;42330;43.620;3.856;2022-10-31T03:06:41;18.50;99.90
56426;DHT22;42330;43.620;3.856;2022-10-31T03:11:44;18.50;99.90
56426;DHT22;42330;43.620;3.856;2022-10-31T03:14:21;18.50;99.90
56426;DHT22;42330;43.620;3.856;2022-10-31T03:16:50;18.50;99.90
56426;DHT22;42330;43.620;3.856;2022-10-31T03:19:40;18.40;99.90
56426;DHT22;42330;43.620;3.856;2022-10-31T03:24:38;18.40;99.90
56426;DHT22;42330;43.620;3.856;2022-10-31T03:27:08;18.40;99.90
56426;DHT22;42330;43.620;3.856;2022-10-31T03:29:37;18.30;99.90
56426;DHT22;42330;43.620;3.856;2022-10-31T03:32:08;18.40;99.90
56426;DHT22;42330;43.620;3.856;2022-10-31T03:34:36;18.40;99.90
56426;DHT22;42330;43.620;3.856;2022-10-31T03:37:06;18.30;99.90
56426;DHT22;42330;43.620;3.856;2022-10-31T03:39:33;18.30;99.90
56426;DHT22;42330;43.620;3.856;2022-10-31T03:42:05;18.30;99.90
56426;DHT22;42330;43.620;3.856;2022-10-31T03:44:33;18.30;99.90
56426;DHT22;42330;43.620;3.856;2022-10-31T03:47:00;18.20;99.90
56426;DHT22;42330;43.620;3.856;2022-10-31T03:49:27;18.20;99.90
56426;DHT22;42330;43.620;3.856;2022-10-31T03:52:12;18.10;99.90
56426;DHT22;42330;43.620;3.856;2022-10-31T03:54:45;18.10;99.90
56426;DHT22;42330;43.620;3.856;2022-10-31T04:00:08;18.00;99.90
56426;DHT22;42330;43.620;3.856;2022-10-31T04:02:39;18.00;99.90
56426;DHT22;42330;43.620;3.856;2022-10-31T04:05:06;18.00;99.90
56426;DHT22;42330;43.620;3.856;2022-10-31T04:07:39;18.00;99.90
56426;DHT22;42330;43.620;3.856;2022-10-31T04:10:09;17.90;99.90
56426;DHT22;42330;43.620;3.856;2022-10-31T04:12:36;17.90;99.90
56426;DHT22;42330;43.620;3.856;2022-10-31T04:15:05;17.90;99.90
56426;DHT22;42330;43.620;3.856;2022-10-31T04:17:34;17.90;99.90
56426;DHT22;42330;43.620;3.856;2022-10-31T04:20:03;17.80;99.90
56426;DHT22;42330;43.620;3.856;2022-10-31T04:22:29;17.80;99.90
56426;DHT22;42330;43.620;3.856;2022-10-31T04:24:54;17.80;99.90
56426;DHT22;42330;43.620;3.856;2022-10-31T04:27:20;17.80;99.90
56426;DHT22;42330;43.620;3.856;2022-10-31T04:29:46;17.70;99.90
56426;DHT22;42330;43.620;3.856;2022-10-31T04:32:11;17.70;99.90
56426;DHT22;42330;43.620;3.856;2022-10-31T04:34:37;17.70;99.90
56426;DHT22;42330;43.620;3.856;2022-10-31T04:37:03;17.70;99.90
56426;DHT22;42330;43.620;3.856;2022-10-31T04:39:28;17.70;99.90
56426;DHT22;42330;43.620;3.856;2022-10-31T04:41:54;17.70;99.90
56426;DHT22;42330;43.620;3.856;2022-10-31T04:44:20;17.60;99.90
56426;DHT22;42330;43.620;3.856;2022-10-31T04:46:45;17.60;99.90
56426;DHT22;42330;43.620;3.856;2022-10-31T04:49:11;17.70;99.90
56426;DHT22;42330;43.620;3.856;2022-10-31T04:51:37;17.60;99.90
56426;DHT22;42330;43.620;3.856;2022-10-31T04:54:03;17.70;99.90
56426;DHT22;42330;43.620;3.856;2022-10-31T04:56:28;17.60;99.90
56426;DHT22;42330;43.620;3.856;2022-10-31T04:58:54;17.70;99.90
56426;DHT22;42330;43.620;3.856;2022-10-31T05:01:20;17.70;99.90
56426;DHT22;42330;43.620;3.856;2022-10-31T05:03:45;17.60;99.90
56426;DHT22;42330;43.620;3.856;2022-10-31T05:06:11;17.60;99.90
56426;DHT22;42330;43.620;3.856;2022-10-31T05:08:37;17.60;99.90
56426;DHT22;42330;43.620;3.856;2022-10-31T05:11:03;17.60;99.90
56426;DHT22;42330;43.620;3.856;2022-10-31T05:13:29;17.60;99.90
56426;DHT22;42330;43.620;3.856;2022-10-31T05:15:55;17.60;99.90
56426;DHT22;42330;43.620;3.856;2022-10-31T05:18:20;17.60;99.90
56426;DHT22;42330;43.620;3.856;2022-10-31T05:20:46;17.50;99.90
56426;DHT22;42330;43.620;3.856;2022-10-31T05:23:11;17.50;99.90
56426;DHT22;42330;43.620;3.856;2022-10-31T05:25:37;17.60;99.90
56426;DHT22;42330;43.620;3.856;2022-10-31T05:28:03;17.50;99.90
56426;DHT22;42330;43.620;3.856;2022-10-31T05:30:31;17.50;99.90
56426;DHT22;42330;43.620;3.856;2022-10-31T05:32:57;17.50;99.90
56426;DHT22;42330;43.620;3.856;2022-10-31T05:35:28;17.50;99.90
56426;DHT22;42330;43.620;3.856;2022-10-31T05:37:54;17.50;99.90
56426;DHT22;42330;43.620;3.856;2022-10-31T05:40:20;17.50;99.90
56426;DHT22;42330;43.620;3.856;2022-10-31T05:42:47;17.50;99.90
56426;DHT22;42330;43.620;3.856;2022-10-31T05:45:15;17.50;99.90
56426;DHT22;42330;43.620;3.856;2022-10-31T05:47:41;17.50;99.90
56426;DHT22;42330;43.620;3.856;2022-10-31T05:50:08;17.50;99.90
56426;DHT22;42330;43.620;3.856;2022-10-31T05:52:34;17.50;99.90
56426;DHT22;42330;43.620;3.856;2022-10-31T05:54:59;17.40;99.90
56426;DHT22;42330;43.620;3.856;2022-10-31T05:57:25;17.40;99.90
56426;DHT22;42330;43.620;3.856;2022-10-31T05:59:51;17.40;99.90
56426;DHT22;42330;43.620;3.856;2022-10-31T06:02:19;17.40;99.90
56426;DHT22;42330;43.620;3.856;2022-10-31T06:04:45;17.40;99.90
56426;DHT22;42330;43.620;3.856;2022-10-31T06:07:11;17.40;99.90
56426;DHT22;42330;43.620;3.856;2022-10-31T06:09:36;17.40;99.90
56426;DHT22;42330;43.620;3.856;2022-10-31T06:12:02;17.40;99.90
56426;DHT22;42330;43.620;3.856;2022-10-31T06:14:28;17.40;99.90
56426;DHT22;42330;43.620;3.856;2022-10-31T06:16:54;17.40;99.90
56426;DHT22;42330;43.620;3.856;2022-10-31T06:19:20;17.50;99.90
56426;DHT22;42330;43.620;3.856;2022-10-31T06:21:46;17.50;99.90
56426;DHT22;42330;43.620;3.856;2022-10-31T06:24:12;17.40;99.90
56426;DHT22;42330;43.620;3.856;2022-10-31T06:26:37;17.50;99.90
56426;DHT22;42330;43.620;3.856;2022-10-31T06:29:03;17.50;99.90
56426;DHT22;42330;43.620;3.856;2022-10-31T06:31:28;17.50;99.90
56426;DHT22;42330;43.620;3.856;2022-10-31T06:33:54;17.50;99.90
56426;DHT22;42330;43.620;3.856;2022-10-31T06:36:20;17.50;99.90
56426;DHT22;42330;43.620;3.856;2022-10-31T06:38:45;17.50;99.90
56426;DHT22;42330;43.620;3.856;2022-10-31T06:41:11;17.50;99.90
56426;DHT22;42330;43.620;3.856;2022-10-31T06:43:37;17.60;99.90
56426;DHT22;42330;43.620;3.856;2022-10-31T06:46:03;17.60;99.90
56426;DHT22;42330;43.620;3.856;2022-10-31T06:48:30;17.50;99.90
56426;DHT22;42330;43.620;3.856;2022-10-31T06:51:00;17.60;99.90
56426;DHT22;42330;43.620;3.856;2022-10-31T06:53:27;17.60;99.90
56426;DHT22;42330;43.620;3.856;2022-10-31T06:55:55;17.60;99.90
56426;DHT22;42330;43.620;3.856;2022-10-31T06:58:20;17.60;99.90
56426;DHT22;42330;43.620;3.856;2022-10-31T07:00:46;17.60;99.90
56426;DHT22;42330;43.620;3.856;2022-10-31T07:03:13;17.50;99.90
56426;DHT22;42330;43.620;3.856;2022-10-31T07:05:41;17.60;99.90
56426;DHT22;42330;43.620;3.856;2022-10-31T07:08:09;17.60;99.90
56426;DHT22;42330;43.620;3.856;2022-10-31T07:10:36;17.60;99.90
56426;DHT22;42330;43.620;3.856;2022-10-31T07:13:05;17.60;99.90
56426;DHT22;42330;43.620;3.856;2022-10-31T07:15:34;17.60;99.90
56426;DHT22;42330;43.620;3.856;2022-10-31T07:18:05;17.60;99.90
56426;DHT22;42330;43.620;3.856;2022-10-31T07:20:31;17.70;99.90
56426;DHT22;42330;43.620;3.856;2022-10-31T07:22:58;17.70;99.90
56426;DHT22;42330;43.620;3.856;2022-10-31T07:25:24;17.70;99.90
56426;DHT22;42330;43.620;3.856;2022-10-31T07:27:50;17.70;99.90
56426;DHT22;42330;43.620;3.856;2022-10-31T07:30:16;17.70;99.90
56426;DHT22;42330;43.620;3.856;2022-10-31T07:32:47;17.70;99.90
56426;DHT22;42330;43.620;3.856;2022-10-31T07:35:15;17.80;99.90
56426;DHT22;42330;43.620;3.856;2022-10-31T07:37:41;17.80;99.90
56426;DHT22;42330;43.620;3.856;2022-10-31T07:40:08;17.80;99.90
56426;DHT22;42330;43.620;3.856;2022-10-31T07:42:38;17.80;99.90
56426;DHT22;42330;43.620;3.856;2022-10-31T07:45:05;17.80;99.90
56426;DHT22;42330;43.620;3.856;2022-10-31T07:47:41;17.80;99.90
56426;DHT22;42330;43.620;3.856;2022-10-31T07:50:09;17.80;99.90
56426;DHT22;42330;43.620;3.856;2022-10-31T07:52:34;17.90;99.90
56426;DHT22;42330;43.620;3.856;2022-10-31T07:55:00;17.90;99.90
56426;DHT22;42330;43.620;3.856;2022-10-31T07:57:26;17.90;99.90
56426;DHT22;42330;43.620;3.856;2022-10-31T07:59:52;17.90;99.90
56426;DHT22;42330;43.620;3.856;2022-10-31T08:02:18;17.90;99.90
56426;DHT22;42330;43.620;3.856;2022-10-31T08:04:43;17.90;99.90
56426;DHT22;42330;43.620;3.856;2022-10-31T08:07:09;18.00;99.90
56426;DHT22;42330;43.620;3.856;2022-10-31T08:09:35;18.00;99.90
56426;DHT22;42330;43.620;3.856;2022-10-31T08:12:00;18.10;99.90
56426;DHT22;42330;43.620;3.856;2022-10-31T08:14:27;18.10;99.90
56426;DHT22;42330;43.620;3.856;2022-10-31T08:16:53;18.10;99.90
56426;DHT22;42330;43.620;3.856;2022-10-31T08:19:19;18.20;99.90
56426;DHT22;42330;43.620;3.856;2022-10-31T08:21:44;18.20;99.90
56426;DHT22;42330;43.620;3.856;2022-10-31T08:24:10;18.20;99.90
56426;DHT22;42330;43.620;3.856;2022-10-31T08:26:35;18.30;99.90
56426;DHT22;42330;43.620;3.856;2022-10-31T08:29:01;18.30;99.90
56426;DHT22;42330;43.620;3.856;2022-10-31T08:31:27;18.30;99.90
56426;DHT22;42330;43.620;3.856;2022-10-31T08:33:53;18.30;99.90
56426;DHT22;42330;43.620;3.856;2022-10-31T08:36:20;18.30;99.90
56426;DHT22;42330;43.620;3.856;2022-10-31T08:38:47;18.40;99.90
56426;DHT22;42330;43.620;3.856;2022-10-31T08:41:12;18.40;99.90
56426;DHT22;42330;43.620;3.856;2022-10-31T08:43:38;18.40;99.90
56426;DHT22;42330;43.620;3.856;2022-10-31T08:46:04;18.50;99.90
56426;DHT22;42330;43.620;3.856;2022-10-31T08:48:30;18.50;99.90
56426;DHT22;42330;43.620;3.856;2022-10-31T08:50:58;18.60;99.90
56426;DHT22;42330;43.620;3.856;2022-10-31T08:53:24;18.60;99.90
56426;DHT22;42330;43.620;3.856;2022-10-31T08:55:49;18.70;99.90
56426;DHT22;42330;43.620;3.856;2022-10-31T08:58:17;18.70;99.90
56426;DHT22;42330;43.620;3.856;2022-10-31T09:00:44;18.70;99.90
56426;DHT22;42330;43.620;3.856;2022-10-31T09:03:12;18.80;99.90
56426;DHT22;42330;43.620;3.856;2022-10-31T09:05:39;18.80;99.90
56426;DHT22;42330;43.620;3.856;2022-10-31T09:08:06;18.80;99.90
56426;DHT22;42330;43.620;3.856;2022-10-31T09:10:32;18.90;99.90
56426;DHT22;42330;43.620;3.856;2022-10-31T09:13:00;19.00;99.90
56426;DHT22;42330;43.620;3.856;2022-10-31T09:15:27;19.00;99.90
56426;DHT22;42330;43.620;3.856;2022-10-31T09:17:53;19.00;99.90
56426;DHT22;42330;43.620;3.856;2022-10-31T09:20:20;19.00;99.90
56426;DHT22;42330;43.620;3.856;2022-10-31T09:22:45;19.10;99.90
56426;DHT22;42330;43.620;3.856;2022-10-31T09:25:11;19.10;99.90
56426;DHT22;42330;43.620;3.856;2022-10-31T09:27:37;19.10;99.90
56426;DHT22;42330;43.620;3.856;2022-10-31T09:30:04;19.10;99.90
56426;DHT22;42330;43.620;3.856;2022-10-31T09:32:29;19.10;99.90
56426;DHT22;42330;43.620;3.856;2022-10-31T09:34:55;19.20;99.90
56426;DHT22;42330;43.620;3.856;2022-10-31T09:37:21;19.20;99.90
56426;DHT22;42330;43.620;3.856;2022-10-31T09:39:46;19.40;99.90
56426;DHT22;42330;43.620;3.856;2022-10-31T09:50:45;19.40;99.90
56426;DHT22;42330;43.620;3.856;2022-10-31T09:53:38;19.40;99.90
56426;DHT22;42330;43.620;3.856;2022-10-31T09:56:08;19.50;99.90
56426;DHT22;42330;43.620;3.856;2022-10-31T09:58:44;19.60;99.90
56426;DHT22;42330;43.620;3.856;2022-10-31T10:03:51;19.70;99.90
56426;DHT22;42330;43.620;3.856;2022-10-31T10:06:25;19.80;99.90
56426;DHT22;42330;43.620;3.856;2022-10-31T10:08:51;19.80;99.90
56426;DHT22;42330;43.620;3.856;2022-10-31T10:14:25;20.00;99.90
56426;DHT22;42330;43.620;3.856;2022-10-31T10:22:47;20.10;99.90
56426;DHT22;42330;43.620;3.856;2022-10-31T10:25:22;20.10;99.90
56426;DHT22;42330;43.620;3.856;2022-10-31T10:30:39;20.20;99.90
56426;DHT22;42330;43.620;3.856;2022-10-31T10:33:14;20.20;99.90
56426;DHT22;42330;43.620;3.856;2022-10-31T10:35:53;20.30;99.90
56426;DHT22;42330;43.620;3.856;2022-10-31T10:41:30;20.60;99.90
56426;DHT22;42330;43.620;3.856;2022-10-31T10:43:56;20.60;99.90
56426;DHT22;42330;43.620;3.856;2022-10-31T10:49:50;20.80;99.90
56426;DHT22;42330;43.620;3.856;2022-10-31T10:59:59;21.10;99.90
56426;DHT22;42330;43.620;3.856;2022-10-31T11:02:27;21.10;99.90
56426;DHT22;42330;43.620;3.856;2022-10-31T11:04:57;21.10;99.90
56426;DHT22;42330;43.620;3.856;2022-10-31T11:07:24;21.10;99.90
56426;DHT22;42330;43.620;3.856;2022-10-31T11:09:49;21.10;99.90
56426;DHT22;42330;43.620;3.856;2022-10-31T11:12:29;21.20;99.90
56426;DHT22;42330;43.620;3.856;2022-10-31T11:14:58;21.20;99.90
56426;DHT22;42330;43.620;3.856;2022-10-31T11:17:34;21.30;99.90
56426;DHT22;42330;43.620;3.856;2022-10-31T11:20:16;21.40;99.90
56426;DHT22;42330;43.620;3.856;2022-10-31T11:22:46;21.50;99.90
56426;DHT22;42330;43.620;3.856;2022-10-31T11:25:23;21.60;99.90
56426;DHT22;42330;43.620;3.856;2022-10-31T11:28:03;21.70;99.90
56426;DHT22;42330;43.620;3.856;2022-10-31T11:30:30;21.80;99.90
56426;DHT22;42330;43.620;3.856;2022-10-31T11:32:56;21.80;99.90
56426;DHT22;42330;43.620;3.856;2022-10-31T11:35:23;21.70;99.90
56426;DHT22;42330;43.620;3.856;2022-10-31T11:37:52;21.60;99.90
56426;DHT22;42330;43.620;3.856;2022-10-31T11:40:21;21.60;99.90
56426;DHT22;42330;43.620;3.856;2022-10-31T11:42:50;21.50;99.90
56426;DHT22;42330;43.620;3.856;2022-10-31T11:45:19;21.50;99.90
56426;DHT22;42330;43.620;3.856;2022-10-31T11:47:54;21.60;99.90
56426;DHT22;42330;43.620;3.856;2022-10-31T11:50:39;21.60;99.90
56426;DHT22;42330;43.620;3.856;2022-10-31T11:53:26;21.70;99.90
56426;DHT22;42330;43.620;3.856;2022-10-31T11:56:14;21.70;99.90
56426;DHT22;42330;43.620;3.856;2022-10-31T11:58:40;21.60;99.90
56426;DHT22;42330;43.620;3.856;2022-10-31T12:01:27;21.70;99.90
56426;DHT22;42330;43.620;3.856;2022-10-31T12:04:09;21.80;99.90
56426;DHT22;42330;43.620;3.856;2022-10-31T12:06:38;21.70;99.90
56426;DHT22;42330;43.620;3.856;2022-10-31T12:09:23;21.70;99.90
56426;DHT22;42330;43.620;3.856;2022-10-31T12:41:51;21.60;99.90
56426;DHT22;42330;43.620;3.856;2022-10-31T13:05:36;21.30;99.90
56426;DHT22;42330;43.620;3.856;2022-10-31T13:08:22;21.30;99.90
56426;DHT22;42330;43.620;3.856;2022-10-31T13:16:22;21.40;99.90
56426;DHT22;42330;43.620;3.856;2022-10-31T13:19:00;21.40;99.90
56426;DHT22;42330;43.620;3.856;2022-10-31T13:21:33;21.40;99.90
56426;DHT22;42330;43.620;3.856;2022-10-31T13:24:02;21.40;99.90
56426;DHT22;42330;43.620;3.856;2022-10-31T13:26:42;21.30;99.90
56426;DHT22;42330;43.620;3.856;2022-10-31T13:32:00;21.30;99.90
56426;DHT22;42330;43.620;3.856;2022-10-31T13:39:44;21.40;99.90
56426;DHT22;42330;43.620;3.856;2022-10-31T13:42:42;21.40;99.90
56426;DHT22;42330;43.620;3.856;2022-10-31T13:45:15;21.30;99.90
56426;DHT22;42330;43.620;3.856;2022-10-31T13:47:41;21.30;99.90
56426;DHT22;42330;43.620;3.856;2022-10-31T13:50:29;21.20;99.90
56426;DHT22;42330;43.620;3.856;2022-10-31T13:53:12;21.30;99.90
56426;DHT22;42330;43.620;3.856;2022-10-31T13:55:43;21.40;99.90
56426;DHT22;42330;43.620;3.856;2022-10-31T13:58:27;21.40;99.90
56426;DHT22;42330;43.620;3.856;2022-10-31T14:03:33;21.30;99.90
56426;DHT22;42330;43.620;3.856;2022-10-31T14:06:01;21.30;99.90
56426;DHT22;42330;43.620;3.856;2022-10-31T14:08:27;21.20;99.90
56426;DHT22;42330;43.620;3.856;2022-10-31T14:10:56;21.30;99.90
56426;DHT22;42330;43.620;3.856;2022-10-31T14:13:42;21.20;99.90
56426;DHT22;42330;43.620;3.856;2022-10-31T14:16:23;21.20;99.90
56426;DHT22;42330;43.620;3.856;2022-10-31T14:21:28;21.20;99.90
56426;DHT22;42330;43.620;3.856;2022-10-31T14:23:55;21.20;99.90
56426;DHT22;42330;43.620;3.856;2022-10-31T14:28:48;21.20;99.90
56426;DHT22;42330;43.620;3.856;2022-10-31T14:31:34;21.20;99.90
56426;DHT22;42330;43.620;3.856;2022-10-31T14:39:31;21.10;99.90
56426;DHT22;42330;43.620;3.856;2022-10-31T14:45:35;21.10;99.90
56426;DHT22;42330;43.620;3.856;2022-10-31T14:50:53;21.10;99.90
56426;DHT22;42330;43.620;3.856;2022-10-31T14:53:35;21.10;99.90
56426;DHT22;42330;43.620;3.856;2022-10-31T14:56:01;21.10;99.90
56426;DHT22;42330;43.620;3.856;2022-10-31T14:58:55;21.10;99.90
56426;DHT22;42330;43.620;3.856;2022-10-31T15:01:28;21.20;99.90
56426;DHT22;42330;43.620;3.856;2022-10-31T15:04:03;21.10;99.90
56426;DHT22;42330;43.620;3.856;2022-10-31T15:06:36;21.10;99.90
56426;DHT22;42330;43.620;3.856;2022-10-31T15:09:04;21.00;99.90
56426;DHT22;42330;43.620;3.856;2022-10-31T15:11:37;21.00;99.90
56426;DHT22;42330;43.620;3.856;2022-10-31T15:14:24;21.00;99.90
56426;DHT22;42330;43.620;3.856;2022-10-31T15:16:51;20.90;99.90
56426;DHT22;42330;43.620;3.856;2022-10-31T15:19:23;20.90;99.90
56426;DHT22;42330;43.620;3.856;2022-10-31T15:21:52;20.90;99.90
56426;DHT22;42330;43.620;3.856;2022-10-31T15:24:18;20.90;99.90
56426;DHT22;42330;43.620;3.856;2022-10-31T15:26:49;20.90;99.90
56426;DHT22;42330;43.620;3.856;2022-10-31T15:29:18;20.90;99.90
56426;DHT22;42330;43.620;3.856;2022-10-31T15:32:24;20.80;99.90
56426;DHT22;42330;43.620;3.856;2022-10-31T15:34:51;20.80;99.90
56426;DHT22;42330;43.620;3.856;2022-10-31T15:37:19;20.80;99.90
56426;DHT22;42330;43.620;3.856;2022-10-31T15:39:47;20.80;99.90
56426;DHT22;42330;43.620;3.856;2022-10-31T15:44:48;20.80;99.90
56426;DHT22;42330;43.620;3.856;2022-10-31T15:47:20;20.80;99.90
56426;DHT22;42330;43.620;3.856;2022-10-31T15:49:52;20.80;99.90
56426;DHT22;42330;43.620;3.856;2022-10-31T15:52:32;20.80;99.90
56426;DHT22;42330;43.620;3.856;2022-10-31T15:55:03;20.80;99.90
56426;DHT22;42330;43.620;3.856;2022-10-31T15:57:30;20.80;99.90
56426;DHT22;42330;43.620;3.856;2022-10-31T15:59:56;20.80;99.90
56426;DHT22;42330;43.620;3.856;2022-10-31T16:02:24;20.80;99.90
56426;DHT22;42330;43.620;3.856;2022-10-31T16:04:57;20.70;99.90
56426;DHT22;42330;43.620;3.856;2022-10-31T16:07:23;20.70;99.90
56426;DHT22;42330;43.620;3.856;2022-10-31T16:09:53;20.70;99.90
56426;DHT22;42330;43.620;3.856;2022-10-31T16:12:20;20.70;99.90
56426;DHT22;42330;43.620;3.856;2022-10-31T16:14:46;20.70;99.90
56426;DHT22;42330;43.620;3.856;2022-10-31T16:17:14;20.70;99.90
56426;DHT22;42330;43.620;3.856;2022-10-31T16:22:20;20.70;99.90
56426;DHT22;42330;43.620;3.856;2022-10-31T16:25:11;20.70;99.90
56426;DHT22;42330;43.620;3.856;2022-10-31T16:27:38;20.70;99.90
56426;DHT22;42330;43.620;3.856;2022-10-31T16:30:39;20.70;99.90
56426;DHT22;42330;43.620;3.856;2022-10-31T16:33:33;20.70;99.90
56426;DHT22;42330;43.620;3.856;2022-10-31T16:38:45;20.70;99.90
56426;DHT22;42330;43.620;3.856;2022-10-31T16:41:11;20.70;99.90
56426;DHT22;42330;43.620;3.856;2022-10-31T16:43:37;20.70;99.90
56426;DHT22;42330;43.620;3.856;2022-10-31T16:46:03;20.70;99.90
56426;DHT22;42330;43.620;3.856;2022-10-31T16:48:29;20.70;99.90
56426;DHT22;42330;43.620;3.856;2022-10-31T16:50:55;20.70;99.90
56426;DHT22;42330;43.620;3.856;2022-10-31T16:53:20;20.70;99.90
56426;DHT22;42330;43.620;3.856;2022-10-31T16:56:04;20.70;99.90
56426;DHT22;42330;43.620;3.856;2022-10-31T16:58:34;20.70;99.90
56426;DHT22;42330;43.620;3.856;2022-10-31T17:01:02;20.70;99.90
56426;DHT22;42330;43.620;3.856;2022-10-31T17:03:29;20.70;99.90
56426;DHT22;42330;43.620;3.856;2022-10-31T17:05:55;20.70;99.90
56426;DHT22;42330;43.620;3.856;2022-10-31T17:08:22;20.70;99.90
56426;DHT22;42330;43.620;3.856;2022-10-31T17:10:51;20.70;99.90
56426;DHT22;42330;43.620;3.856;2022-10-31T17:13:21;20.70;99.90
56426;DHT22;42330;43.620;3.856;2022-10-31T17:15:51;20.70;99.90
56426;DHT22;42330;43.620;3.856;2022-10-31T17:18:17;20.70;99.90
56426;DHT22;42330;43.620;3.856;2022-10-31T17:20:44;20.70;99.90
56426;DHT22;42330;43.620;3.856;2022-10-31T17:23:11;20.70;99.90
56426;DHT22;42330;43.620;3.856;2022-10-31T17:25:37;20.70;99.90
56426;DHT22;42330;43.620;3.856;2022-10-31T17:28:04;20.70;99.90
56426;DHT22;42330;43.620;3.856;2022-10-31T17:30:31;20.70;99.90
56426;DHT22;42330;43.620;3.856;2022-10-31T17:32:56;20.70;99.90
56426;DHT22;42330;43.620;3.856;2022-10-31T17:35:22;20.70;99.90
56426;DHT22;42330;43.620;3.856;2022-10-31T17:37:49;20.70;99.90
56426;DHT22;42330;43.620;3.856;2022-10-31T17:40:19;20.70;99.90
56426;DHT22;42330;43.620;3.856;2022-10-31T17:42:53;20.70;99.90
56426;DHT22;42330;43.620;3.856;2022-10-31T17:45:20;20.70;99.90
56426;DHT22;42330;43.620;3.856;2022-10-31T17:47:50;20.70;99.90
56426;DHT22;42330;43.620;3.856;2022-10-31T17:50:17;20.70;99.90
56426;DHT22;42330;43.620;3.856;2022-10-31T17:52:43;20.70;99.90
56426;DHT22;42330;43.620;3.856;2022-10-31T17:55:09;20.70;99.90
56426;DHT22;42330;43.620;3.856;2022-10-31T17:57:35;20.70;99.90
56426;DHT22;42330;43.620;3.856;2022-10-31T18:00:06;20.70;99.90
56426;DHT22;42330;43.620;3.856;2022-10-31T18:02:33;20.70;99.90
56426;DHT22;42330;43.620;3.856;2022-10-31T18:04:58;20.70;99.90
56426;DHT22;42330;43.620;3.856;2022-10-31T18:07:27;20.70;99.90
56426;DHT22;42330;43.620;3.856;2022-10-31T18:09:52;20.70;99.90
56426;DHT22;42330;43.620;3.856;2022-10-31T18:12:18;20.70;99.90
56426;DHT22;42330;43.620;3.856;2022-10-31T18:14:44;20.70;99.90
56426;DHT22;42330;43.620;3.856;2022-10-31T18:17:09;20.70;99.90
56426;DHT22;42330;43.620;3.856;2022-10-31T18:19:35;20.70;99.90
56426;DHT22;42330;43.620;3.856;2022-10-31T18:22:01;20.70;99.90